Terminal Aerodrome Forecast
Issued by NWS Sterling, VA

Current Version | Previous Version | Graphics & Text | Print | Product List | Glossary On
Versions: 1 2 3 4 5 6 7 8 9 10 11 12 13 14 15 16 17 18 19 20 21 22 23 24 25 26 27 28 29
000
FTUS41 KLWX 210520
TAFDCA
TAF
KDCA 210520Z 2106/2206 16004KT P6SM BKN120
     FM211500 25007KT P6SM BKN090
     FM211800 26007KT P6SM -SHRA BKN060
     FM220000 33006KT P6SM BKN150=

USA.gov is the U.S. government's official web portal to all federal, state and local government web resources and services.